sensor_id;sensor_type;location;lat;lon;timestamp;P1;durP1;ratioP1;P2;durP2;ratioP2
58238;SDS011;44037;55.638;37.356;2023-05-21T00:00:21;13.25;;;8.93;;
58238;SDS011;44037;55.638;37.356;2023-05-21T00:02:48;12.05;;;8.90;;
58238;SDS011;44037;55.638;37.356;2023-05-21T00:05:16;15.25;;;10.10;;
58238;SDS011;44037;55.638;37.356;2023-05-21T00:07:43;11.65;;;8.85;;
58238;SDS011;44037;55.638;37.356;2023-05-21T00:10:11;14.40;;;9.60;;
58238;SDS011;44037;55.638;37.356;2023-05-21T00:12:39;13.15;;;10.15;;
58238;SDS011;44037;55.638;37.356;2023-05-21T00:15:09;16.67;;;10.80;;
58238;SDS011;44037;55.638;37.356;2023-05-21T00:17:36;13.35;;;9.68;;
58238;SDS011;44037;55.638;37.356;2023-05-21T00:20:04;13.90;;;9.68;;
58238;SDS011;44037;55.638;37.356;2023-05-21T00:22:34;11.85;;;8.88;;
58238;SDS011;44037;55.638;37.356;2023-05-21T00:25:01;14.52;;;9.68;;
58238;SDS011;44037;55.638;37.356;2023-05-21T00:27:30;12.93;;;9.73;;
58238;SDS011;44037;55.638;37.356;2023-05-21T00:29:57;15.65;;;10.48;;
58238;SDS011;44037;55.638;37.356;2023-05-21T00:32:26;12.40;;;9.55;;
58238;SDS011;44037;55.638;37.356;2023-05-21T00:34:53;13.73;;;9.63;;
58238;SDS011;44037;55.638;37.356;2023-05-21T00:37:22;12.77;;;9.50;;
58238;SDS011;44037;55.638;37.356;2023-05-21T00:39:50;13.07;;;9.93;;
58238;SDS011;44037;55.638;37.356;2023-05-21T00:42:17;13.15;;;9.80;;
58238;SDS011;44037;55.638;37.356;2023-05-21T00:44:44;12.35;;;9.52;;
58238;SDS011;44037;55.638;37.356;2023-05-21T00:47:12;12.73;;;9.88;;
58238;SDS011;44037;55.638;37.356;2023-05-21T00:49:43;14.98;;;9.82;;
58238;SDS011;44037;55.638;37.356;2023-05-21T00:52:12;15.43;;;10.52;;
58238;SDS011;44037;55.638;37.356;2023-05-21T00:54:45;13.55;;;9.88;;
58238;SDS011;44037;55.638;37.356;2023-05-21T00:57:12;15.48;;;11.40;;
58238;SDS011;44037;55.638;37.356;2023-05-21T00:59:40;16.10;;;10.90;;
58238;SDS011;44037;55.638;37.356;2023-05-21T01:02:07;13.90;;;9.70;;
58238;SDS011;44037;55.638;37.356;2023-05-21T01:04:38;15.63;;;10.63;;
58238;SDS011;44037;55.638;37.356;2023-05-21T01:07:07;14.27;;;10.45;;
58238;SDS011;44037;55.638;37.356;2023-05-21T01:09:34;12.98;;;10.38;;
58238;SDS011;44037;55.638;37.356;2023-05-21T01:12:01;15.50;;;11.38;;
58238;SDS011;44037;55.638;37.356;2023-05-21T01:14:29;14.13;;;10.35;;
58238;SDS011;44037;55.638;37.356;2023-05-21T01:16:57;11.00;;;8.90;;
58238;SDS011;44037;55.638;37.356;2023-05-21T01:19:26;14.90;;;10.85;;
58238;SDS011;44037;55.638;37.356;2023-05-21T01:21:55;15.15;;;11.07;;
58238;SDS011;44037;55.638;37.356;2023-05-21T01:24:27;15.10;;;10.30;;
58238;SDS011;44037;55.638;37.356;2023-05-21T01:26:54;13.65;;;10.02;;
58238;SDS011;44037;55.638;37.356;2023-05-21T01:29:23;18.50;;;11.65;;
58238;SDS011;44037;55.638;37.356;2023-05-21T01:31:54;14.88;;;10.50;;
58238;SDS011;44037;55.638;37.356;2023-05-21T01:34:25;12.68;;;9.98;;
58238;SDS011;44037;55.638;37.356;2023-05-21T01:36:59;13.70;;;10.60;;
58238;SDS011;44037;55.638;37.356;2023-05-21T01:39:34;14.40;;;11.25;;
58238;SDS011;44037;55.638;37.356;2023-05-21T01:42:05;14.93;;;10.77;;
58238;SDS011;44037;55.638;37.356;2023-05-21T01:44:35;14.68;;;10.48;;
58238;SDS011;44037;55.638;37.356;2023-05-21T01:47:03;13.93;;;10.25;;
58238;SDS011;44037;55.638;37.356;2023-05-21T01:49:31;14.32;;;10.10;;
58238;SDS011;44037;55.638;37.356;2023-05-21T01:51:58;13.05;;;10.23;;
58238;SDS011;44037;55.638;37.356;2023-05-21T01:54:26;13.75;;;10.43;;
58238;SDS011;44037;55.638;37.356;2023-05-21T01:56:55;13.60;;;9.55;;
58238;SDS011;44037;55.638;37.356;2023-05-21T01:59:22;13.50;;;10.40;;
58238;SDS011;44037;55.638;37.356;2023-05-21T02:01:49;15.45;;;11.68;;
58238;SDS011;44037;55.638;37.356;2023-05-21T02:04:17;14.50;;;11.25;;
58238;SDS011;44037;55.638;37.356;2023-05-21T02:06:44;13.60;;;10.35;;
58238;SDS011;44037;55.638;37.356;2023-05-21T02:09:11;16.67;;;10.63;;
58238;SDS011;44037;55.638;37.356;2023-05-21T02:11:38;18.35;;;11.45;;
58238;SDS011;44037;55.638;37.356;2023-05-21T02:14:07;14.48;;;10.63;;
58238;SDS011;44037;55.638;37.356;2023-05-21T02:16:35;13.45;;;10.50;;
58238;SDS011;44037;55.638;37.356;2023-05-21T02:19:02;15.13;;;11.80;;
58238;SDS011;44037;55.638;37.356;2023-05-21T02:21:33;16.88;;;11.60;;
58238;SDS011;44037;55.638;37.356;2023-05-21T02:24:00;14.63;;;10.75;;
58238;SDS011;44037;55.638;37.356;2023-05-21T02:26:27;14.93;;;11.70;;
58238;SDS011;44037;55.638;37.356;2023-05-21T02:28:55;16.20;;;11.82;;
58238;SDS011;44037;55.638;37.356;2023-05-21T02:31:24;16.05;;;11.32;;
58238;SDS011;44037;55.638;37.356;2023-05-21T02:33:51;14.65;;;11.68;;
58238;SDS011;44037;55.638;37.356;2023-05-21T02:36:18;16.15;;;12.27;;
58238;SDS011;44037;55.638;37.356;2023-05-21T02:38:45;17.30;;;12.60;;
58238;SDS011;44037;55.638;37.356;2023-05-21T02:41:12;14.80;;;11.20;;
58238;SDS011;44037;55.638;37.356;2023-05-21T02:43:40;14.35;;;11.55;;
58238;SDS011;44037;55.638;37.356;2023-05-21T02:46:07;17.42;;;12.50;;
58238;SDS011;44037;55.638;37.356;2023-05-21T02:48:36;14.43;;;11.23;;
58238;SDS011;44037;55.638;37.356;2023-05-21T02:51:03;14.45;;;12.93;;
58238;SDS011;44037;55.638;37.356;2023-05-21T02:53:30;15.75;;;12.52;;
58238;SDS011;44037;55.638;37.356;2023-05-21T02:55:57;16.85;;;12.57;;
58238;SDS011;44037;55.638;37.356;2023-05-21T02:58:24;14.40;;;12.25;;
58238;SDS011;44037;55.638;37.356;2023-05-21T03:00:52;16.00;;;12.50;;
58238;SDS011;44037;55.638;37.356;2023-05-21T03:03:19;17.50;;;13.25;;
58238;SDS011;44037;55.638;37.356;2023-05-21T03:05:48;17.98;;;12.80;;
58238;SDS011;44037;55.638;37.356;2023-05-21T03:08:15;19.70;;;13.27;;
58238;SDS011;44037;55.638;37.356;2023-05-21T03:10:42;18.55;;;13.02;;
58238;SDS011;44037;55.638;37.356;2023-05-21T03:13:09;15.05;;;12.85;;
58238;SDS011;44037;55.638;37.356;2023-05-21T03:15:36;17.88;;;13.35;;
58238;SDS011;44037;55.638;37.356;2023-05-21T03:18:04;17.70;;;12.07;;
58238;SDS011;44037;55.638;37.356;2023-05-21T03:20:31;15.20;;;12.15;;
58238;SDS011;44037;55.638;37.356;2023-05-21T03:23:00;19.45;;;11.77;;
58238;SDS011;44037;55.638;37.356;2023-05-21T03:25:29;15.98;;;11.75;;
58238;SDS011;44037;55.638;37.356;2023-05-21T03:27:56;20.60;;;13.43;;
58238;SDS011;44037;55.638;37.356;2023-05-21T03:30:23;17.52;;;12.48;;
58238;SDS011;44037;55.638;37.356;2023-05-21T03:32:50;18.83;;;13.70;;
58238;SDS011;44037;55.638;37.356;2023-05-21T03:35:18;16.17;;;12.73;;
58238;SDS011;44037;55.638;37.356;2023-05-21T03:37:45;20.77;;;14.63;;
58238;SDS011;44037;55.638;37.356;2023-05-21T03:40:14;17.40;;;13.43;;
58238;SDS011;44037;55.638;37.356;2023-05-21T03:42:41;18.38;;;13.63;;
58238;SDS011;44037;55.638;37.356;2023-05-21T03:45:08;17.40;;;14.90;;
58238;SDS011;44037;55.638;37.356;2023-05-21T03:47:36;19.25;;;14.98;;
58238;SDS011;44037;55.638;37.356;2023-05-21T03:50:03;21.23;;;14.52;;
58238;SDS011;44037;55.638;37.356;2023-05-21T03:52:31;23.70;;;16.70;;
58238;SDS011;44037;55.638;37.356;2023-05-21T03:54:59;21.02;;;14.63;;
58238;SDS011;44037;55.638;37.356;2023-05-21T03:57:27;20.98;;;16.10;;
58238;SDS011;44037;55.638;37.356;2023-05-21T03:59:54;23.88;;;17.45;;
58238;SDS011;44037;55.638;37.356;2023-05-21T04:02:24;22.75;;;16.15;;
58238;SDS011;44037;55.638;37.356;2023-05-21T04:04:51;22.58;;;16.27;;
58238;SDS011;44037;55.638;37.356;2023-05-21T04:07:19;26.20;;;18.27;;
58238;SDS011;44037;55.638;37.356;2023-05-21T04:09:47;22.33;;;17.02;;
58238;SDS011;44037;55.638;37.356;2023-05-21T04:12:14;21.65;;;16.77;;
58238;SDS011;44037;55.638;37.356;2023-05-21T04:14:45;23.50;;;17.45;;
58238;SDS011;44037;55.638;37.356;2023-05-21T04:17:12;25.05;;;18.13;;
58238;SDS011;44037;55.638;37.356;2023-05-21T04:19:40;23.48;;;17.30;;
58238;SDS011;44037;55.638;37.356;2023-05-21T04:22:08;23.13;;;17.92;;
58238;SDS011;44037;55.638;37.356;2023-05-21T04:24:36;27.17;;;17.48;;
58238;SDS011;44037;55.638;37.356;2023-05-21T04:27:04;25.98;;;19.13;;
58238;SDS011;44037;55.638;37.356;2023-05-21T04:29:34;24.35;;;18.02;;
58238;SDS011;44037;55.638;37.356;2023-05-21T04:32:03;23.38;;;17.15;;
58238;SDS011;44037;55.638;37.356;2023-05-21T04:34:31;22.48;;;17.08;;
58238;SDS011;44037;55.638;37.356;2023-05-21T04:36:59;23.75;;;17.35;;
58238;SDS011;44037;55.638;37.356;2023-05-21T04:39:26;23.70;;;17.30;;
58238;SDS011;44037;55.638;37.356;2023-05-21T04:41:55;24.65;;;16.83;;
58238;SDS011;44037;55.638;37.356;2023-05-21T04:44:22;23.23;;;16.60;;
58238;SDS011;44037;55.638;37.356;2023-05-21T04:46:50;26.10;;;18.02;;
58238;SDS011;44037;55.638;37.356;2023-05-21T04:49:20;22.90;;;16.67;;
58238;SDS011;44037;55.638;37.356;2023-05-21T04:51:47;26.67;;;18.50;;
58238;SDS011;44037;55.638;37.356;2023-05-21T04:54:17;25.15;;;17.58;;
58238;SDS011;44037;55.638;37.356;2023-05-21T04:56:44;22.42;;;16.83;;
58238;SDS011;44037;55.638;37.356;2023-05-21T04:59:11;22.63;;;15.27;;
58238;SDS011;44037;55.638;37.356;2023-05-21T05:01:38;23.00;;;16.45;;
58238;SDS011;44037;55.638;37.356;2023-05-21T05:04:08;23.45;;;16.58;;
58238;SDS011;44037;55.638;37.356;2023-05-21T05:06:36;19.58;;;15.82;;
58238;SDS011;44037;55.638;37.356;2023-05-21T05:09:03;23.30;;;15.35;;
58238;SDS011;44037;55.638;37.356;2023-05-21T05:11:30;19.55;;;15.18;;
58238;SDS011;44037;55.638;37.356;2023-05-21T05:13:58;24.85;;;16.75;;
58238;SDS011;44037;55.638;37.356;2023-05-21T05:16:25;20.60;;;14.73;;
58238;SDS011;44037;55.638;37.356;2023-05-21T05:18:53;20.17;;;15.45;;
58238;SDS011;44037;55.638;37.356;2023-05-21T05:21:21;20.83;;;15.88;;
58238;SDS011;44037;55.638;37.356;2023-05-21T05:23:50;18.33;;;13.90;;
58238;SDS011;44037;55.638;37.356;2023-05-21T05:26:17;19.88;;;15.60;;
58238;SDS011;44037;55.638;37.356;2023-05-21T05:28:45;17.60;;;13.15;;
58238;SDS011;44037;55.638;37.356;2023-05-21T05:31:13;17.90;;;14.50;;
58238;SDS011;44037;55.638;37.356;2023-05-21T05:33:40;20.15;;;15.93;;
58238;SDS011;44037;55.638;37.356;2023-05-21T05:36:10;20.38;;;16.17;;
58238;SDS011;44037;55.638;37.356;2023-05-21T05:38:37;20.20;;;14.85;;
58238;SDS011;44037;55.638;37.356;2023-05-21T05:41:06;18.38;;;14.25;;
58238;SDS011;44037;55.638;37.356;2023-05-21T05:43:33;21.05;;;15.48;;
58238;SDS011;44037;55.638;37.356;2023-05-21T05:46:00;19.65;;;14.57;;
58238;SDS011;44037;55.638;37.356;2023-05-21T05:48:28;20.55;;;15.10;;
58238;SDS011;44037;55.638;37.356;2023-05-21T05:50:55;18.98;;;14.75;;
58238;SDS011;44037;55.638;37.356;2023-05-21T05:53:22;18.55;;;14.75;;
58238;SDS011;44037;55.638;37.356;2023-05-21T05:55:50;16.45;;;13.30;;
58238;SDS011;44037;55.638;37.356;2023-05-21T05:58:18;17.55;;;12.60;;
58238;SDS011;44037;55.638;37.356;2023-05-21T06:00:45;16.92;;;13.20;;
58238;SDS011;44037;55.638;37.356;2023-05-21T06:03:13;21.80;;;15.00;;
58238;SDS011;44037;55.638;37.356;2023-05-21T06:05:40;18.40;;;13.32;;
58238;SDS011;44037;55.638;37.356;2023-05-21T06:08:07;19.52;;;13.70;;
58238;SDS011;44037;55.638;37.356;2023-05-21T06:10:34;19.30;;;12.10;;
58238;SDS011;44037;55.638;37.356;2023-05-21T06:13:01;15.68;;;10.57;;
58238;SDS011;44037;55.638;37.356;2023-05-21T06:15:30;13.73;;;10.35;;
58238;SDS011;44037;55.638;37.356;2023-05-21T06:17:57;14.02;;;10.55;;
58238;SDS011;44037;55.638;37.356;2023-05-21T06:20:24;12.20;;;10.55;;
58238;SDS011;44037;55.638;37.356;2023-05-21T06:22:51;17.77;;;10.70;;
58238;SDS011;44037;55.638;37.356;2023-05-21T06:25:19;15.23;;;10.63;;
58238;SDS011;44037;55.638;37.356;2023-05-21T06:27:46;11.82;;;9.30;;
58238;SDS011;44037;55.638;37.356;2023-05-21T06:30:13;13.75;;;10.77;;
58238;SDS011;44037;55.638;37.356;2023-05-21T06:32:42;11.27;;;8.73;;
58238;SDS011;44037;55.638;37.356;2023-05-21T06:35:09;11.63;;;8.90;;
58238;SDS011;44037;55.638;37.356;2023-05-21T06:37:36;12.05;;;9.73;;
58238;SDS011;44037;55.638;37.356;2023-05-21T06:40:04;12.65;;;9.00;;
58238;SDS011;44037;55.638;37.356;2023-05-21T06:42:32;11.25;;;7.70;;
58238;SDS011;44037;55.638;37.356;2023-05-21T06:45:00;11.25;;;8.60;;
58238;SDS011;44037;55.638;37.356;2023-05-21T06:47:31;14.02;;;8.60;;
58238;SDS011;44037;55.638;37.356;2023-05-21T06:50:00;13.85;;;8.93;;
58238;SDS011;44037;55.638;37.356;2023-05-21T06:52:31;14.68;;;10.57;;
58238;SDS011;44037;55.638;37.356;2023-05-21T06:54:58;13.48;;;10.10;;
58238;SDS011;44037;55.638;37.356;2023-05-21T06:57:25;12.57;;;9.40;;
58238;SDS011;44037;55.638;37.356;2023-05-21T06:59:52;16.15;;;9.77;;
58238;SDS011;44037;55.638;37.356;2023-05-21T07:02:19;14.52;;;9.57;;
58238;SDS011;44037;55.638;37.356;2023-05-21T07:04:46;11.15;;;9.40;;
58238;SDS011;44037;55.638;37.356;2023-05-21T07:07:15;14.63;;;10.20;;
58238;SDS011;44037;55.638;37.356;2023-05-21T07:09:42;14.18;;;9.73;;
58238;SDS011;44037;55.638;37.356;2023-05-21T07:12:09;13.57;;;9.90;;
58238;SDS011;44037;55.638;37.356;2023-05-21T07:14:36;14.15;;;9.95;;
58238;SDS011;44037;55.638;37.356;2023-05-21T07:17:03;18.92;;;11.40;;
58238;SDS011;44037;55.638;37.356;2023-05-21T07:19:30;18.40;;;13.98;;
58238;SDS011;44037;55.638;37.356;2023-05-21T07:22:02;23.25;;;15.55;;
58238;SDS011;44037;55.638;37.356;2023-05-21T07:24:32;22.10;;;14.45;;
58238;SDS011;44037;55.638;37.356;2023-05-21T07:26:59;18.13;;;13.10;;
58238;SDS011;44037;55.638;37.356;2023-05-21T07:29:26;14.88;;;12.25;;
58238;SDS011;44037;55.638;37.356;2023-05-21T07:31:53;19.10;;;12.68;;
58238;SDS011;44037;55.638;37.356;2023-05-21T07:34:20;15.93;;;11.80;;
58238;SDS011;44037;55.638;37.356;2023-05-21T07:36:47;20.23;;;13.02;;
58238;SDS011;44037;55.638;37.356;2023-05-21T07:39:15;25.55;;;17.55;;
58238;SDS011;44037;55.638;37.356;2023-05-21T07:41:43;20.90;;;15.10;;
58238;SDS011;44037;55.638;37.356;2023-05-21T07:44:10;18.15;;;13.93;;
58238;SDS011;44037;55.638;37.356;2023-05-21T07:46:37;18.33;;;15.05;;
58238;SDS011;44037;55.638;37.356;2023-05-21T07:49:05;19.55;;;15.38;;
58238;SDS011;44037;55.638;37.356;2023-05-21T07:51:32;17.52;;;13.85;;
58238;SDS011;44037;55.638;37.356;2023-05-21T07:53:59;21.48;;;14.32;;
58238;SDS011;44037;55.638;37.356;2023-05-21T07:56:26;19.00;;;14.75;;
58238;SDS011;44037;55.638;37.356;2023-05-21T07:58:55;17.02;;;13.35;;
58238;SDS011;44037;55.638;37.356;2023-05-21T08:01:22;19.45;;;14.20;;
58238;SDS011;44037;55.638;37.356;2023-05-21T08:03:49;20.02;;;15.07;;
58238;SDS011;44037;55.638;37.356;2023-05-21T08:06:17;18.35;;;14.38;;
58238;SDS011;44037;55.638;37.356;2023-05-21T08:08:44;17.95;;;15.05;;
58238;SDS011;44037;55.638;37.356;2023-05-21T08:11:11;16.73;;;14.02;;
58238;SDS011;44037;55.638;37.356;2023-05-21T08:13:38;21.27;;;14.35;;
58238;SDS011;44037;55.638;37.356;2023-05-21T08:16:07;16.65;;;13.88;;
58238;SDS011;44037;55.638;37.356;2023-05-21T08:18:35;25.25;;;16.05;;
58238;SDS011;44037;55.638;37.356;2023-05-21T08:21:02;24.38;;;16.10;;
58238;SDS011;44037;55.638;37.356;2023-05-21T08:23:30;22.45;;;17.30;;
58238;SDS011;44037;55.638;37.356;2023-05-21T08:25:57;21.48;;;16.95;;
58238;SDS011;44037;55.638;37.356;2023-05-21T08:28:24;20.05;;;15.15;;
58238;SDS011;44037;55.638;37.356;2023-05-21T08:30:51;17.02;;;14.50;;
58238;SDS011;44037;55.638;37.356;2023-05-21T08:33:20;21.00;;;13.63;;
58238;SDS011;44037;55.638;37.356;2023-05-21T08:35:47;20.83;;;15.45;;
58238;SDS011;44037;55.638;37.356;2023-05-21T08:38:14;18.77;;;13.82;;
58238;SDS011;44037;55.638;37.356;2023-05-21T08:40:42;15.13;;;11.88;;
58238;SDS011;44037;55.638;37.356;2023-05-21T08:43:09;15.10;;;12.38;;
58238;SDS011;44037;55.638;37.356;2023-05-21T08:45:40;23.58;;;18.83;;
58238;SDS011;44037;55.638;37.356;2023-05-21T08:48:09;19.08;;;12.43;;
58238;SDS011;44037;55.638;37.356;2023-05-21T08:50:38;14.43;;;9.32;;
58238;SDS011;44037;55.638;37.356;2023-05-21T08:53:06;17.17;;;11.15;;
58238;SDS011;44037;55.638;37.356;2023-05-21T08:55:34;13.43;;;9.90;;
58238;SDS011;44037;55.638;37.356;2023-05-21T08:58:03;14.07;;;11.07;;
58238;SDS011;44037;55.638;37.356;2023-05-21T09:00:30;16.42;;;11.40;;
58238;SDS011;44037;55.638;37.356;2023-05-21T09:02:57;16.70;;;10.57;;
58238;SDS011;44037;55.638;37.356;2023-05-21T09:05:25;42.78;;;27.13;;
58238;SDS011;44037;55.638;37.356;2023-05-21T09:08:02;11.77;;;9.50;;
58238;SDS011;44037;55.638;37.356;2023-05-21T09:10:34;15.25;;;9.75;;
58238;SDS011;44037;55.638;37.356;2023-05-21T09:13:03;10.60;;;8.38;;
58238;SDS011;44037;55.638;37.356;2023-05-21T09:15:32;14.18;;;9.45;;
58238;SDS011;44037;55.638;37.356;2023-05-21T09:17:59;13.15;;;10.25;;
58238;SDS011;44037;55.638;37.356;2023-05-21T09:20:27;17.45;;;11.27;;
58238;SDS011;44037;55.638;37.356;2023-05-21T09:22:56;13.20;;;10.35;;
58238;SDS011;44037;55.638;37.356;2023-05-21T09:25:28;13.45;;;10.65;;
58238;SDS011;44037;55.638;37.356;2023-05-21T09:27:57;15.63;;;10.35;;
58238;SDS011;44037;55.638;37.356;2023-05-21T09:30:24;12.55;;;10.02;;
58238;SDS011;44037;55.638;37.356;2023-05-21T09:32:53;17.48;;;12.73;;
58238;SDS011;44037;55.638;37.356;2023-05-21T09:35:22;15.57;;;10.45;;
58238;SDS011;44037;55.638;37.356;2023-05-21T09:37:50;12.50;;;10.75;;
58238;SDS011;44037;55.638;37.356;2023-05-21T09:40:20;15.70;;;10.85;;
58238;SDS011;44037;55.638;37.356;2023-05-21T09:42:49;16.02;;;11.55;;
58238;SDS011;44037;55.638;37.356;2023-05-21T09:45:17;17.23;;;11.80;;
58238;SDS011;44037;55.638;37.356;2023-05-21T09:47:45;15.05;;;10.93;;
58238;SDS011;44037;55.638;37.356;2023-05-21T09:50:16;16.55;;;12.02;;
58238;SDS011;44037;55.638;37.356;2023-05-21T09:52:44;14.45;;;11.00;;
58238;SDS011;44037;55.638;37.356;2023-05-21T09:55:12;16.55;;;12.27;;
58238;SDS011;44037;55.638;37.356;2023-05-21T09:57:41;12.43;;;9.80;;
58238;SDS011;44037;55.638;37.356;2023-05-21T10:00:15;15.05;;;10.38;;
58238;SDS011;44037;55.638;37.356;2023-05-21T10:02:44;14.15;;;10.27;;
58238;SDS011;44037;55.638;37.356;2023-05-21T10:05:13;15.00;;;10.80;;
58238;SDS011;44037;55.638;37.356;2023-05-21T10:07:41;11.00;;;8.10;;
58238;SDS011;44037;55.638;37.356;2023-05-21T10:10:11;9.90;;;7.93;;
58238;SDS011;44037;55.638;37.356;2023-05-21T10:12:42;9.27;;;7.63;;
58238;SDS011;44037;55.638;37.356;2023-05-21T10:15:12;10.02;;;8.30;;
58238;SDS011;44037;55.638;37.356;2023-05-21T10:17:42;13.18;;;10.35;;
58238;SDS011;44037;55.638;37.356;2023-05-21T10:20:10;8.32;;;7.50;;
58238;SDS011;44037;55.638;37.356;2023-05-21T10:22:38;8.80;;;7.22;;
58238;SDS011;44037;55.638;37.356;2023-05-21T10:25:06;11.43;;;8.57;;
58238;SDS011;44037;55.638;37.356;2023-05-21T10:27:34;7.63;;;6.70;;
58238;SDS011;44037;55.638;37.356;2023-05-21T10:30:04;8.50;;;6.68;;
58238;SDS011;44037;55.638;37.356;2023-05-21T10:32:33;10.20;;;6.65;;
58238;SDS011;44037;55.638;37.356;2023-05-21T10:35:00;9.38;;;6.38;;
58238;SDS011;44037;55.638;37.356;2023-05-21T10:37:31;9.48;;;6.65;;
58238;SDS011;44037;55.638;37.356;2023-05-21T10:39:58;8.50;;;5.80;;
58238;SDS011;44037;55.638;37.356;2023-05-21T10:42:41;9.93;;;7.63;;
58238;SDS011;44037;55.638;37.356;2023-05-21T10:45:25;9.85;;;7.18;;
58238;SDS011;44037;55.638;37.356;2023-05-21T10:48:07;10.45;;;7.13;;
58238;SDS011;44037;55.638;37.356;2023-05-21T10:51:05;9.38;;;7.53;;
58238;SDS011;44037;55.638;37.356;2023-05-21T10:53:47;11.60;;;8.50;;
58238;SDS011;44037;55.638;37.356;2023-05-21T10:56:29;9.73;;;7.28;;
58238;SDS011;44037;55.638;37.356;2023-05-21T10:59:06;9.85;;;7.63;;
58238;SDS011;44037;55.638;37.356;2023-05-21T11:01:41;9.18;;;6.70;;
58238;SDS011;44037;55.638;37.356;2023-05-21T11:04:09;11.70;;;8.73;;
58238;SDS011;44037;55.638;37.356;2023-05-21T11:06:39;9.48;;;6.93;;
58238;SDS011;44037;55.638;37.356;2023-05-21T11:09:12;9.32;;;7.55;;
58238;SDS011;44037;55.638;37.356;2023-05-21T11:11:43;6.32;;;5.25;;
58238;SDS011;44037;55.638;37.356;2023-05-21T11:16:58;7.72;;;5.03;;
58238;SDS011;44037;55.638;37.356;2023-05-21T11:19:36;7.63;;;5.70;;
58238;SDS011;44037;55.638;37.356;2023-05-21T11:22:08;7.13;;;5.82;;
58238;SDS011;44037;55.638;37.356;2023-05-21T11:24:45;8.73;;;5.15;;
58238;SDS011;44037;55.638;37.356;2023-05-21T11:27:13;6.43;;;4.80;;
58238;SDS011;44037;55.638;37.356;2023-05-21T11:29:56;7.60;;;4.75;;
58238;SDS011;44037;55.638;37.356;2023-05-21T11:32:25;5.90;;;3.72;;
58238;SDS011;44037;55.638;37.356;2023-05-21T11:34:52;6.75;;;5.00;;
58238;SDS011;44037;55.638;37.356;2023-05-21T11:37:25;6.97;;;4.85;;
58238;SDS011;44037;55.638;37.356;2023-05-21T11:40:17;8.45;;;6.47;;
58238;SDS011;44037;55.638;37.356;2023-05-21T11:42:48;5.10;;;4.10;;
58238;SDS011;44037;55.638;37.356;2023-05-21T11:45:17;6.15;;;4.72;;
58238;SDS011;44037;55.638;37.356;2023-05-21T11:47:47;7.47;;;5.22;;
58238;SDS011;44037;55.638;37.356;2023-05-21T11:50:14;5.65;;;4.40;;
58238;SDS011;44037;55.638;37.356;2023-05-21T11:52:43;5.60;;;4.38;;
58238;SDS011;44037;55.638;37.356;2023-05-21T11:55:11;7.80;;;4.88;;
58238;SDS011;44037;55.638;37.356;2023-05-21T11:57:40;6.22;;;4.50;;
58238;SDS011;44037;55.638;37.356;2023-05-21T12:00:12;8.90;;;4.85;;
58238;SDS011;44037;55.638;37.356;2023-05-21T12:02:44;8.05;;;4.68;;
58238;SDS011;44037;55.638;37.356;2023-05-21T12:05:16;5.43;;;4.45;;
58238;SDS011;44037;55.638;37.356;2023-05-21T12:07:45;10.10;;;5.03;;
58238;SDS011;44037;55.638;37.356;2023-05-21T12:10:14;8.27;;;7.03;;
58238;SDS011;44037;55.638;37.356;2023-05-21T12:12:42;8.65;;;5.32;;
58238;SDS011;44037;55.638;37.356;2023-05-21T12:15:09;10.02;;;6.53;;
58238;SDS011;44037;55.638;37.356;2023-05-21T12:17:38;8.63;;;4.72;;
58238;SDS011;44037;55.638;37.356;2023-05-21T12:20:07;7.28;;;4.03;;
58238;SDS011;44037;55.638;37.356;2023-05-21T12:22:39;3.45;;;2.55;;
58238;SDS011;44037;55.638;37.356;2023-05-21T12:25:08;3.33;;;2.60;;
58238;SDS011;44037;55.638;37.356;2023-05-21T12:27:36;3.97;;;3.00;;
58238;SDS011;44037;55.638;37.356;2023-05-21T12:30:04;3.25;;;2.60;;
58238;SDS011;44037;55.638;37.356;2023-05-21T12:32:32;5.97;;;2.47;;
58238;SDS011;44037;55.638;37.356;2023-05-21T12:34:59;4.35;;;2.78;;
58238;SDS011;44037;55.638;37.356;2023-05-21T12:37:31;3.78;;;3.25;;
58238;SDS011;44037;55.638;37.356;2023-05-21T12:40:00;3.50;;;2.10;;
58238;SDS011;44037;55.638;37.356;2023-05-21T12:42:32;3.05;;;2.05;;
58238;SDS011;44037;55.638;37.356;2023-05-21T12:45:00;2.92;;;2.28;;
58238;SDS011;44037;55.638;37.356;2023-05-21T12:47:32;3.10;;;2.03;;
58238;SDS011;44037;55.638;37.356;2023-05-21T12:50:00;5.43;;;2.70;;
58238;SDS011;44037;55.638;37.356;2023-05-21T12:52:33;4.45;;;2.35;;
58238;SDS011;44037;55.638;37.356;2023-05-21T12:55:00;2.88;;;2.25;;
58238;SDS011;44037;55.638;37.356;2023-05-21T12:57:34;4.55;;;2.92;;
58238;SDS011;44037;55.638;37.356;2023-05-21T13:00:03;4.53;;;3.03;;
58238;SDS011;44037;55.638;37.356;2023-05-21T13:02:32;3.90;;;3.05;;
58238;SDS011;44037;55.638;37.356;2023-05-21T13:05:02;6.88;;;4.57;;
58238;SDS011;44037;55.638;37.356;2023-05-21T13:07:35;6.63;;;4.53;;
58238;SDS011;44037;55.638;37.356;2023-05-21T13:10:04;3.75;;;3.00;;
58238;SDS011;44037;55.638;37.356;2023-05-21T13:12:33;3.53;;;2.55;;
58238;SDS011;44037;55.638;37.356;2023-05-21T13:15:02;4.97;;;3.05;;
58238;SDS011;44037;55.638;37.356;2023-05-21T13:17:37;4.43;;;1.98;;
58238;SDS011;44037;55.638;37.356;2023-05-21T13:20:06;2.47;;;1.52;;
58238;SDS011;44037;55.638;37.356;2023-05-21T13:22:38;2.53;;;1.67;;
58238;SDS011;44037;55.638;37.356;2023-05-21T13:25:07;2.30;;;1.90;;
58238;SDS011;44037;55.638;37.356;2023-05-21T13:27:34;3.53;;;1.98;;
58238;SDS011;44037;55.638;37.356;2023-05-21T13:30:02;2.63;;;2.20;;
58238;SDS011;44037;55.638;37.356;2023-05-21T13:32:31;2.50;;;1.63;;
58238;SDS011;44037;55.638;37.356;2023-05-21T13:34:58;2.90;;;2.28;;
58238;SDS011;44037;55.638;37.356;2023-05-21T13:37:25;5.97;;;4.03;;
58238;SDS011;44037;55.638;37.356;2023-05-21T13:39:54;9.68;;;5.45;;
58238;SDS011;44037;55.638;37.356;2023-05-21T13:42:21;6.72;;;4.63;;
58238;SDS011;44037;55.638;37.356;2023-05-21T13:44:48;5.97;;;4.60;;
58238;SDS011;44037;55.638;37.356;2023-05-21T13:47:15;3.58;;;3.00;;
58238;SDS011;44037;55.638;37.356;2023-05-21T13:49:43;4.75;;;3.58;;
58238;SDS011;44037;55.638;37.356;2023-05-21T13:52:10;4.82;;;3.22;;
58238;SDS011;44037;55.638;37.356;2023-05-21T13:54:37;4.82;;;3.70;;
58238;SDS011;44037;55.638;37.356;2023-05-21T13:57:06;4.85;;;3.20;;
58238;SDS011;44037;55.638;37.356;2023-05-21T13:59:34;5.15;;;3.65;;
58238;SDS011;44037;55.638;37.356;2023-05-21T14:02:01;3.75;;;2.90;;
58238;SDS011;44037;55.638;37.356;2023-05-21T14:04:28;3.28;;;2.72;;
58238;SDS011;44037;55.638;37.356;2023-05-21T14:06:55;13.75;;;6.57;;
58238;SDS011;44037;55.638;37.356;2023-05-21T14:09:22;5.00;;;4.07;;
58238;SDS011;44037;55.638;37.356;2023-05-21T14:11:51;4.65;;;3.53;;
58238;SDS011;44037;55.638;37.356;2023-05-21T14:14:21;8.02;;;4.75;;
58238;SDS011;44037;55.638;37.356;2023-05-21T14:16:48;4.65;;;3.70;;
58238;SDS011;44037;55.638;37.356;2023-05-21T14:19:16;6.05;;;3.92;;
58238;SDS011;44037;55.638;37.356;2023-05-21T14:21:43;6.05;;;4.18;;
58238;SDS011;44037;55.638;37.356;2023-05-21T14:24:10;6.93;;;4.07;;
58238;SDS011;44037;55.638;37.356;2023-05-21T14:26:38;7.93;;;4.68;;
58238;SDS011;44037;55.638;37.356;2023-05-21T14:29:06;8.43;;;5.07;;